Hall, Australia
Current Conditions -  °F | °C
As of 3:12 AM on Thursday 27 Nov 2014 (Local Time) from YSCB Reporting Station
Overcast Overcast  
Wind Chill: 57°   Ceiling: 2700
Heat Index: 57°   Visibility: 6mi
Dew Point: 52°   Wind: 7mph
Humidity: 82%   Direction: 100°E
Pressure: 30.12"   Gusts: NA
Location:  35.17°S, 149.07°E
Report Text: YSCB 261612Z AUTO 10006KT 9999 // OVC027 14/11 Q1020
Loading
Personal Weather Stations






























Interactive Weather Map New forecast layout! Learn more

10-Day Weather Forecast

Advertisements
Track Severe Weather on mobile